Estherville, Iowa
Current Conditions -  °F | °C
As of 1:52 PM on Thursday 18 Dec 2014 (Local Time) from KEST Reporting Station
Overcast Overcast  
Wind Chill: 22°   Ceiling: 7500
Heat Index: 22°   Visibility: 10mi
Dew Point: 17°   Wind: 3mph
Humidity: 82%   Direction: 150°SSE
Pressure: 30.19"   Gusts: NA
Location:  43.4°N, 94.84°W
Report Text: KEST 181952Z AUTO 15003KT 10SM OVC075 M06/M08 A3019 RMK AO2 SLP249 T10561083
Loading
Personal Weather Stations






























Interactive Weather Map New forecast layout! Learn more

10-Day Weather Forecast

Advertisements
Track Severe Weather on mobile